Time;durP1;ratioP1;P1;durP2;ratioP2;P2;SDS_P1;SDS_P2;PMS_P1;PMS_P2;Temp;Humidity;BMP_temperature;BMP_pressure;BME280_temperature;BME280_humidity;BME280_pressure;Samples;Min_cycle;Max_cycle;Signal;HPM_P1;HPM_P2
2022/05/08 00:02:40;;;;;;;18.00;4.70;;;9.40;99.90;;;;;;4977036;28;20312;-83
2022/05/08 00:05:26;;;;;;;15.37;4.57;;;9.40;99.90;;;;;;4971560;28;20201;-84
2022/05/08 00:08:14;;;;;;;19.20;5.20;;;9.40;99.90;;;;;;4976234;28;20185;-84
2022/05/08 00:10:58;;;;;;;17.07;4.50;;;9.40;99.90;;;;;;4973583;28;20200;-83
2022/05/08 00:13:43;;;;;;;21.00;5.17;;;9.30;99.90;;;;;;4970032;28;20261;-84
2022/05/08 00:16:28;;;;;;;25.37;5.47;;;9.30;99.90;;;;;;4973396;28;20197;-84
2022/05/08 00:19:12;;;;;;;16.73;4.73;;;9.30;99.90;;;;;;4973111;28;20213;-83
2022/05/08 00:21:59;;;;;;;16.80;4.93;;;9.30;99.90;;;;;;4971897;28;20228;-83
2022/05/08 00:24:47;;;;;;;17.07;4.63;;;9.20;99.90;;;;;;4970891;28;20205;-83
2022/05/08 00:27:32;;;;;;;17.53;4.60;;;9.20;99.90;;;;;;4972009;28;20195;-83
2022/05/08 00:30:16;;;;;;;17.37;4.60;;;9.20;99.90;;;;;;4974053;28;20192;-83
2022/05/08 00:33:01;;;;;;;26.13;5.43;;;9.10;99.90;;;;;;4974667;28;21010;-83
2022/05/08 00:35:46;;;;;;;20.93;5.27;;;9.00;99.90;;;;;;4971259;28;20212;-83
2022/05/08 00:38:34;;;;;;;18.60;5.03;;;9.00;99.90;;;;;;4970574;28;20313;-83
2022/05/08 00:41:19;;;;;;;18.17;4.63;;;9.00;99.90;;;;;;4971191;28;20201;-83
2022/05/08 00:44:04;;;;;;;20.83;4.40;;;9.00;99.90;;;;;;4972971;28;20224;-83
2022/05/08 00:46:49;;;;;;;20.90;4.90;;;9.00;99.90;;;;;;4972723;28;20193;-84
2022/05/08 00:49:34;;;;;;;16.90;4.63;;;9.00;99.90;;;;;;4973853;28;20209;-83
2022/05/08 00:52:19;;;;;;;17.43;4.50;;;9.00;99.90;;;;;;4967057;28;20235;-83
2022/05/08 00:55:08;;;;;;;12.20;4.27;;;9.00;99.90;;;;;;4971750;28;20220;-83
2022/05/08 00:57:53;;;;;;;19.20;5.53;;;9.00;99.90;;;;;;4970999;28;20267;-84
2022/05/08 01:00:37;;;;;;;21.87;5.83;;;8.90;99.90;;;;;;4967049;28;20241;-83
2022/05/08 01:03:22;;;;;;;16.43;4.00;;;8.90;99.90;;;;;;4972261;28;20208;-85
2022/05/08 01:06:08;;;;;;;9.23;4.30;;;8.90;99.90;;;;;;4974148;28;20244;-83
2022/05/08 01:08:54;;;;;;;17.27;4.17;;;8.90;99.90;;;;;;4973766;28;20696;-83
2022/05/08 01:11:39;;;;;;;12.87;3.77;;;8.90;99.90;;;;;;4969553;28;20592;-83
2022/05/08 01:14:23;;;;;;;15.77;4.67;;;8.90;99.90;;;;;;4970830;28;20201;-83
2022/05/08 01:17:08;;;;;;;16.03;4.30;;;8.80;99.90;;;;;;4968017;28;20193;-83
2022/05/08 01:19:53;;;;;;;16.67;4.60;;;8.80;99.90;;;;;;4969065;28;20244;-83
2022/05/08 01:22:41;;;;;;;23.40;5.07;;;8.80;99.90;;;;;;4966641;28;20211;-83
2022/05/08 01:25:25;;;;;;;18.17;4.27;;;8.80;99.90;;;;;;4969377;28;20301;-83
2022/05/08 01:28:11;;;;;;;13.60;4.33;;;8.80;99.90;;;;;;4968413;28;20201;-82
2022/05/08 01:30:56;;;;;;;26.23;4.53;;;8.80;99.90;;;;;;4970243;28;20205;-84
2022/05/08 01:33:41;;;;;;;18.40;4.50;;;8.90;99.90;;;;;;4964706;28;20221;-84
2022/05/08 01:36:25;;;;;;;14.93;4.07;;;8.80;99.90;;;;;;4972058;28;20276;-83
2022/05/08 01:39:10;;;;;;;18.43;4.83;;;8.70;99.90;;;;;;4983610;28;20665;-84
2022/05/08 01:41:55;;;;;;;15.47;3.97;;;8.70;99.90;;;;;;4969002;28;20212;-84
2022/05/08 01:44:39;;;;;;;24.17;5.07;;;8.70;99.90;;;;;;4971172;28;20192;-83
2022/05/08 01:50:27;;;;;;;21.50;3.93;;;8.60;99.90;;;;;;4985121;28;20592;-83
2022/05/08 01:53:12;;;;;;;18.47;4.17;;;8.60;99.90;;;;;;4972791;28;20209;-83
2022/05/08 01:55:57;;;;;;;16.17;4.23;;;8.50;99.90;;;;;;4983148;28;20193;-83
2022/05/08 01:58:41;;;;;;;15.03;4.50;;;8.50;99.90;;;;;;4973193;28;20291;-84
2022/05/08 02:01:26;;;;;;;14.87;4.53;;;8.50;99.90;;;;;;4971693;28;20200;-83
2022/05/08 02:04:15;;;;;;;14.33;3.70;;;8.40;99.90;;;;;;4970895;28;20232;-83
2022/05/08 02:07:00;;;;;;;15.97;4.10;;;8.30;99.90;;;;;;4968811;28;20223;-83
2022/05/08 02:09:45;;;;;;;21.87;4.57;;;8.30;99.90;;;;;;4969297;28;20200;-83
2022/05/08 02:12:30;;;;;;;16.57;4.57;;;8.30;99.90;;;;;;4969128;28;20211;-84
2022/05/08 02:15:15;;;;;;;20.10;4.53;;;8.20;99.90;;;;;;4969878;28;20212;-84
2022/05/08 02:18:01;;;;;;;10.90;4.10;;;8.20;99.90;;;;;;4971776;28;20188;-84
2022/05/08 02:20:46;;;;;;;15.67;4.27;;;8.20;99.90;;;;;;4982035;28;20696;-84
2022/05/08 02:23:30;;;;;;;17.87;5.00;;;8.20;99.90;;;;;;4969288;28;20234;-84
2022/05/08 02:26:15;;;;;;;14.97;4.03;;;8.10;99.90;;;;;;4969099;28;20216;-83
2022/05/08 02:29:00;;;;;;;18.10;4.53;;;8.10;99.90;;;;;;4970375;28;20214;-83
2022/05/08 02:31:45;;;;;;;18.37;4.70;;;8.10;99.90;;;;;;4968916;28;20318;-83
2022/05/08 02:34:30;;;;;;;15.63;3.70;;;8.10;99.90;;;;;;4969395;28;20331;-83
2022/05/08 02:37:14;;;;;;;17.67;4.07;;;8.10;99.90;;;;;;4974105;28;20288;-84
2022/05/08 02:39:59;;;;;;;23.80;5.07;;;8.00;99.90;;;;;;4969158;28;20310;-83
2022/05/08 02:42:44;;;;;;;19.50;4.40;;;8.00;99.90;;;;;;4967630;28;20209;-83
2022/05/08 02:45:28;;;;;;;13.53;4.10;;;8.10;99.90;;;;;;4966111;28;20185;-83
2022/05/08 02:48:14;;;;;;;12.17;3.87;;;8.10;99.90;;;;;;4969730;28;20239;-83
2022/05/08 02:50:58;;;;;;;12.63;4.10;;;8.10;99.90;;;;;;4965223;28;20213;-81
2022/05/08 02:53:43;;;;;;;14.23;4.07;;;8.10;99.90;;;;;;4971235;28;20394;-83
2022/05/08 02:59:31;;;;;;;13.70;4.10;;;8.00;99.90;;;;;;4984639;28;20239;-83
2022/05/08 03:02:16;;;;;;;13.13;4.30;;;8.00;99.90;;;;;;4968125;28;20744;-83
2022/05/08 03:05:07;;;;;;;17.93;4.70;;;7.90;99.90;;;;;;4968142;28;20216;-83
2022/05/08 03:07:52;;;;;;;13.33;4.77;;;7.80;99.90;;;;;;4972390;28;20619;-84
2022/05/08 03:13:41;;;;;;;12.27;4.23;;;7.70;99.90;;;;;;4985243;28;20217;-84
2022/05/08 03:16:28;;;;;;;19.60;5.23;;;7.70;99.90;;;;;;4971773;28;20188;-84
2022/05/08 03:19:13;;;;;;;15.67;4.23;;;7.70;99.90;;;;;;4974247;28;20207;-83
2022/05/08 03:21:58;;;;;;;11.67;4.47;;;7.70;99.90;;;;;;4973908;28;20193;-83
2022/05/08 03:24:42;;;;;;;12.33;5.33;;;7.60;99.90;;;;;;4974009;28;20209;-84
2022/05/08 03:27:28;;;;;;;16.17;4.77;;;7.60;99.90;;;;;;4990787;28;20194;-84
2022/05/08 03:30:12;;;;;;;13.20;4.20;;;7.60;99.90;;;;;;4973342;28;20262;-84
2022/05/08 03:32:58;;;;;;;18.77;4.60;;;7.60;99.90;;;;;;4974639;28;20240;-84
2022/05/08 03:35:43;;;;;;;15.27;4.27;;;7.50;99.90;;;;;;4973143;28;20264;-83
2022/05/08 03:38:28;;;;;;;17.00;4.37;;;7.40;99.90;;;;;;4973288;28;20609;-83
2022/05/08 03:41:17;;;;;;;14.97;4.67;;;7.30;99.90;;;;;;4974059;28;20281;-83
2022/05/08 03:44:02;;;;;;;17.90;4.37;;;7.30;99.90;;;;;;4974697;28;20220;-83
2022/05/08 03:46:46;;;;;;;10.53;4.37;;;7.30;99.90;;;;;;4974474;28;20236;-83
2022/05/08 03:49:31;;;;;;;12.13;4.23;;;7.20;99.90;;;;;;4971525;28;20205;-84
2022/05/08 03:52:15;;;;;;;13.80;4.13;;;7.20;99.90;;;;;;4970404;28;20229;-84
2022/05/08 03:55:02;;;;;;;10.57;4.43;;;7.20;99.90;;;;;;4970897;28;20209;-83
2022/05/08 03:57:46;;;;;;;18.47;4.97;;;7.20;99.90;;;;;;4972062;28;20209;-83
2022/05/08 04:00:31;;;;;;;10.70;4.23;;;7.20;99.90;;;;;;4969830;28;20271;-83
2022/05/08 04:03:22;;;;;;;16.40;4.87;;;7.20;99.90;;;;;;4971494;28;20236;-83
2022/05/08 04:06:09;;;;;;;12.30;4.73;;;7.10;99.90;;;;;;4982907;28;20201;-84
2022/05/08 04:08:54;;;;;;;10.40;3.97;;;7.10;99.90;;;;;;4969557;28;20313;-85
2022/05/08 04:11:42;;;;;;;17.20;4.43;;;7.10;99.90;;;;;;4968785;28;20205;-84
2022/05/08 04:14:27;;;;;;;15.47;4.00;;;7.00;99.90;;;;;;4972529;28;20204;-84
2022/05/08 04:17:12;;;;;;;15.10;4.53;;;7.10;99.90;;;;;;4970818;28;20247;-84
2022/05/08 04:19:56;;;;;;;10.67;4.27;;;7.10;99.90;;;;;;4966171;28;21503;-83
2022/05/08 04:25:44;;;;;;;13.47;4.23;;;7.10;99.90;;;;;;4980323;28;20193;-84
2022/05/08 04:28:29;;;;;;;10.37;3.63;;;7.10;99.90;;;;;;4972662;28;20679;-84
2022/05/08 04:31:13;;;;;;;15.77;5.03;;;7.10;99.90;;;;;;4972602;28;20225;-84
2022/05/08 04:33:58;;;;;;;9.80;5.20;;;7.10;99.90;;;;;;4973462;28;20213;-84
2022/05/08 04:36:43;;;;;;;10.10;4.47;;;7.10;99.90;;;;;;4970210;28;20735;-84
2022/05/08 04:39:27;;;;;;;12.67;4.43;;;7.10;99.90;;;;;;4971476;28;20232;-84
2022/05/08 04:42:12;;;;;;;18.57;4.67;;;7.10;99.90;;;;;;4970887;28;20214;-84
2022/05/08 04:44:59;;;;;;;13.03;4.50;;;7.00;99.90;;;;;;4971904;28;20204;-84
2022/05/08 04:47:43;;;;;;;17.73;4.87;;;7.00;99.90;;;;;;4973246;28;20193;-84
2022/05/08 04:50:28;;;;;;;19.77;5.63;;;7.10;99.90;;;;;;4971318;28;20317;-82
2022/05/08 04:53:13;;;;;;;13.20;4.60;;;7.10;99.90;;;;;;4971405;28;20240;-82
2022/05/08 04:56:01;;;;;;;11.43;4.90;;;7.10;99.90;;;;;;4970571;28;20197;-85
2022/05/08 04:58:45;;;;;;;16.17;4.63;;;7.20;99.90;;;;;;4972129;28;21045;-82
2022/05/08 05:01:30;;;;;;;14.40;4.77;;;7.20;99.90;;;;;;4969703;28;20298;-83
2022/05/08 05:04:15;;;;;;;14.40;5.47;;;7.20;99.90;;;;;;4968996;28;20228;-82
2022/05/08 05:07:08;;;;;;;15.73;4.53;;;7.20;99.90;;;;;;4971574;28;20215;-83
2022/05/08 05:09:55;;;;;;;21.87;5.03;;;7.30;99.90;;;;;;4970456;28;20242;-82
2022/05/08 05:12:40;;;;;;;16.23;5.00;;;7.30;99.90;;;;;;4972734;28;20268;-82
2022/05/08 05:15:25;;;;;;;15.10;4.77;;;7.30;99.90;;;;;;4973344;28;20232;-82
2022/05/08 05:18:10;;;;;;;22.03;5.30;;;7.40;99.90;;;;;;4975184;28;20740;-83
2022/05/08 05:20:55;;;;;;;13.87;4.80;;;7.40;99.90;;;;;;4972037;28;20218;-82
2022/05/08 05:23:39;;;;;;;16.33;4.47;;;7.50;99.90;;;;;;4973967;28;20226;-83
2022/05/08 05:26:24;;;;;;;14.87;4.30;;;7.50;99.90;;;;;;4969531;28;20237;-83
2022/05/08 05:29:09;;;;;;;15.63;4.57;;;7.50;99.90;;;;;;4972523;28;20197;-82
2022/05/08 05:31:56;;;;;;;14.17;4.50;;;7.50;99.90;;;;;;4974984;28;20273;-82
2022/05/08 05:34:41;;;;;;;9.73;3.53;;;7.60;99.90;;;;;;4970209;28;20196;-83
2022/05/08 05:37:26;;;;;;;13.70;3.90;;;7.70;99.90;;;;;;4984348;28;20217;-83
2022/05/08 05:40:13;;;;;;;16.43;4.37;;;7.80;99.90;;;;;;4972190;28;20294;-83
2022/05/08 05:42:58;;;;;;;12.33;4.20;;;7.80;99.90;;;;;;4970412;28;20285;-83
2022/05/08 05:45:45;;;;;;;13.83;3.70;;;7.80;99.90;;;;;;4972164;28;20197;-83
2022/05/08 05:48:30;;;;;;;9.13;4.00;;;7.90;99.90;;;;;;4972423;28;20260;-82
2022/05/08 05:51:15;;;;;;;12.13;3.80;;;8.00;99.90;;;;;;4969360;28;20244;-83
2022/05/08 05:54:02;;;;;;;10.90;3.73;;;8.10;99.90;;;;;;4970541;28;20275;-81
2022/05/08 05:56:50;;;;;;;10.37;2.73;;;8.10;99.90;;;;;;4965307;28;20188;-85
2022/05/08 05:59:37;;;;;;;10.90;3.17;;;8.20;99.90;;;;;;4968326;28;20225;-82
2022/05/08 06:02:22;;;;;;;14.43;3.90;;;8.30;99.90;;;;;;4964502;28;20212;-82
2022/05/08 06:05:10;;;;;;;10.33;3.03;;;8.30;99.90;;;;;;4967812;28;20199;-83
2022/05/08 06:08:02;;;;;;;13.03;3.40;;;8.40;99.90;;;;;;4964486;28;20192;-84
2022/05/08 06:10:48;;;;;;;10.00;2.70;;;8.40;99.90;;;;;;4968417;28;20907;-85
2022/05/08 06:13:36;;;;;;;9.00;2.40;;;8.50;99.90;;;;;;4964606;28;20221;-83
2022/05/08 06:16:20;;;;;;;8.40;2.57;;;8.60;99.90;;;;;;4969375;28;20663;-85
2022/05/08 06:19:06;;;;;;;10.03;2.60;;;8.80;99.90;;;;;;4966936;28;20308;-83
2022/05/08 06:21:59;;;;;;;7.13;2.57;;;8.90;99.90;;;;;;4965315;28;20200;-80
2022/05/08 06:24:49;;;;;;;8.57;2.20;;;8.90;99.90;;;;;;4966883;28;20186;-79
2022/05/08 06:27:34;;;;;;;10.47;2.37;;;9.00;99.90;;;;;;4967459;28;20201;-81
2022/05/08 06:30:24;;;;;;;11.93;2.40;;;9.00;99.90;;;;;;4978216;28;20204;-81
2022/05/08 06:33:18;;;;;;;12.87;2.00;;;9.10;99.90;;;;;;4965825;28;20286;-90
2022/05/08 06:36:05;;;;;;;9.47;1.90;;;9.10;99.90;;;;;;4963287;28;20213;-85
2022/05/08 06:38:55;;;;;;;9.60;2.23;;;9.20;99.90;;;;;;4963942;28;20212;-86
2022/05/08 06:41:41;;;;;;;15.03;2.27;;;9.20;99.90;;;;;;4967225;28;20193;-85
2022/05/08 06:44:26;;;;;;;8.00;2.37;;;9.30;99.90;;;;;;4969044;28;20197;-83
2022/05/08 06:47:13;;;;;;;11.30;2.10;;;9.30;99.90;;;;;;4968175;28;20233;-78
2022/05/08 06:49:58;;;;;;;6.97;1.97;;;9.40;99.90;;;;;;4971027;28;20208;-82
2022/05/08 06:52:42;;;;;;;10.83;2.40;;;9.50;99.90;;;;;;4972469;28;20212;-83
2022/05/08 06:55:28;;;;;;;11.63;2.60;;;9.50;99.90;;;;;;4968435;28;20874;-82
2022/05/08 06:58:20;;;;;;;9.13;2.03;;;9.60;99.90;;;;;;4972142;28;20668;-81
2022/05/08 07:04:24;;;;;;;10.03;2.40;;;9.70;99.90;;;;;;4901884;29;20243;-84
2022/05/08 07:07:09;;;;;;;15.40;1.77;;;9.70;99.90;;;;;;4966677;28;20189;-84
2022/05/08 07:09:55;;;;;;;8.93;1.77;;;9.80;99.90;;;;;;4987471;28;20239;-84
2022/05/08 07:12:39;;;;;;;3.30;1.40;;;9.80;99.90;;;;;;4968920;28;20235;-84
2022/05/08 07:15:28;;;;;;;7.93;1.83;;;9.70;99.90;;;;;;4970282;28;20197;-83
2022/05/08 07:18:16;;;;;;;10.93;2.10;;;9.80;99.90;;;;;;4976027;28;20220;-83
2022/05/08 07:21:00;;;;;;;12.10;1.93;;;9.80;99.90;;;;;;4970132;28;20252;-83
2022/05/08 07:23:46;;;;;;;6.53;1.43;;;9.80;99.90;;;;;;4972188;28;20217;-83
2022/05/08 07:26:31;;;;;;;9.93;2.50;;;9.80;99.90;;;;;;4988319;28;20186;-83
2022/05/08 07:29:15;;;;;;;8.27;2.30;;;9.90;99.90;;;;;;4972400;28;20568;-83
2022/05/08 07:31:59;;;;;;;11.40;2.50;;;9.90;99.90;;;;;;4984556;28;20273;-83
2022/05/08 07:37:47;;;;;;;7.30;2.10;;;10.10;99.90;;;;;;4983932;28;20576;-83
2022/05/08 07:40:32;;;;;;;12.47;2.37;;;10.10;99.90;;;;;;4971119;28;20219;-83
2022/05/08 07:43:16;;;;;;;9.37;2.10;;;10.10;99.90;;;;;;4972035;28;20227;-83
2022/05/08 07:46:01;;;;;;;7.73;1.97;;;10.20;99.90;;;;;;4968389;28;20186;-83
2022/05/08 07:48:49;;;;;;;5.87;2.20;;;10.20;99.90;;;;;;4972349;28;20252;-83
2022/05/08 07:51:34;;;;;;;10.30;2.57;;;10.20;99.90;;;;;;4971451;28;20530;-84
2022/05/08 07:54:18;;;;;;;10.23;2.70;;;10.20;99.90;;;;;;4973143;28;20232;-83
2022/05/08 07:57:03;;;;;;;5.40;2.30;;;10.30;99.90;;;;;;4973180;28;20259;-83
2022/05/08 07:59:49;;;;;;;9.70;2.63;;;10.30;99.90;;;;;;4973898;28;20208;-83
2022/05/08 08:02:34;;;;;;;10.93;2.40;;;10.30;99.90;;;;;;4984561;28;20375;-83
2022/05/08 08:05:18;;;;;;;9.10;2.97;;;10.30;99.90;;;;;;4973015;28;20313;-83
2022/05/08 08:08:03;;;;;;;10.93;2.67;;;10.40;99.90;;;;;;4974653;28;20243;-83
2022/05/08 08:10:49;;;;;;;6.97;2.07;;;10.30;99.90;;;;;;4970333;28;21213;-83
2022/05/08 08:13:35;;;;;;;9.83;2.67;;;10.40;99.90;;;;;;4969846;28;20240;-83
2022/05/08 08:16:19;;;;;;;7.37;2.00;;;10.50;99.90;;;;;;4972022;28;20288;-84
2022/05/08 08:19:04;;;;;;;4.80;1.80;;;10.60;99.90;;;;;;4967868;28;20264;-83
2022/05/08 08:21:48;;;;;;;9.60;2.10;;;10.60;99.90;;;;;;4971585;28;20188;-83
2022/05/08 08:24:32;;;;;;;9.37;2.20;;;10.60;99.90;;;;;;4972422;28;20563;-83
2022/05/08 08:27:18;;;;;;;8.43;2.47;;;10.60;99.90;;;;;;4969808;28;20193;-83
2022/05/08 08:30:03;;;;;;;5.77;2.03;;;10.70;99.90;;;;;;4972146;28;20215;-83
2022/05/08 08:32:48;;;;;;;9.93;2.20;;;10.80;99.90;;;;;;4988633;28;20215;-83
2022/05/08 08:35:33;;;;;;;8.43;1.87;;;10.80;99.90;;;;;;4969798;28;20177;-82
2022/05/08 08:38:17;;;;;;;8.17;2.33;;;10.90;99.90;;;;;;4971108;28;20185;-83
2022/05/08 08:41:04;;;;;;;8.43;1.80;;;10.90;99.90;;;;;;4971334;28;20675;-84
2022/05/08 08:50:01;;;;;;;5.27;1.73;;;11.00;99.90;;;;;;4985038;28;20205;-83
2022/05/08 08:52:46;;;;;;;6.77;1.83;;;11.10;99.90;;;;;;4967635;28;20225;-82
2022/05/08 08:55:32;;;;;;;16.80;2.53;;;11.10;99.90;;;;;;4969082;28;20534;-83
2022/05/08 08:58:17;;;;;;;8.27;2.40;;;11.30;99.90;;;;;;4968557;28;20236;-83
2022/05/08 09:01:02;;;;;;;9.53;2.40;;;11.30;99.90;;;;;;4972485;28;20221;-83
2022/05/08 09:03:46;;;;;;;6.80;2.00;;;11.30;99.90;;;;;;4971524;28;20208;-83
2022/05/08 09:06:45;;;;;;;6.30;2.10;;;11.40;99.90;;;;;;4970550;28;20187;-83
2022/05/08 09:09:33;;;;;;;5.13;1.83;;;11.40;99.90;;;;;;4970537;28;20293;-83
2022/05/08 09:12:18;;;;;;;5.90;1.80;;;11.50;99.90;;;;;;4969789;28;21449;-82
2022/05/08 09:15:23;;;;;;;8.90;2.00;;;11.50;99.90;;;;;;4968607;28;20245;-83
2022/05/08 09:18:10;;;;;;;9.93;2.30;;;11.50;99.90;;;;;;4981132;28;20266;-83
2022/05/08 09:21:54;;;;;;;11.53;1.93;;;11.60;99.90;;;;;;4965160;28;20240;-83
2022/05/08 09:24:08;;;;;;;5.93;2.00;;;11.60;99.90;;;;;;4980404;28;20213;-83
2022/05/08 09:27:15;;;;;;;5.43;2.10;;;11.70;99.90;;;;;;4971696;28;20675;-83
2022/05/08 09:30:10;;;;;;;7.57;1.80;;;11.80;99.90;;;;;;4968975;28;20201;-82
2022/05/08 09:32:54;;;;;;;5.57;2.07;;;11.90;99.90;;;;;;4972048;28;20786;-84
2022/05/08 09:35:45;;;;;;;6.60;2.07;;;11.90;99.90;;;;;;4972194;28;20196;-83
2022/05/08 09:38:46;;;;;;;9.37;2.10;;;11.90;99.90;;;;;;4968607;28;20264;-84
2022/05/08 09:41:38;;;;;;;8.93;2.07;;;11.90;99.90;;;;;;4975383;28;20196;-83
2022/05/08 09:44:23;;;;;;;6.00;2.10;;;12.00;99.90;;;;;;4991435;28;20197;-83
2022/05/08 09:47:07;;;;;;;6.03;1.57;;;12.10;99.90;;;;;;4974205;28;20257;-83
2022/05/08 09:49:52;;;;;;;13.37;1.77;;;12.20;99.90;;;;;;4978994;28;20216;-83
2022/05/08 09:52:39;;;;;;;6.57;1.70;;;12.30;99.90;;;;;;4974489;28;20240;-84
2022/05/08 09:55:23;;;;;;;2.83;1.70;;;12.40;99.90;;;;;;4976886;28;20193;-83
2022/05/08 09:58:08;;;;;;;4.03;1.60;;;12.50;99.90;;;;;;4973031;28;20703;-83
2022/05/08 10:00:56;;;;;;;12.80;2.10;;;12.50;99.90;;;;;;4974517;28;20202;-83
2022/05/08 10:03:43;;;;;;;8.00;1.80;;;12.50;99.90;;;;;;4973484;28;20325;-83
2022/05/08 10:06:30;;;;;;;4.13;2.00;;;12.60;99.90;;;;;;4974040;28;20696;-83
2022/05/08 10:15:34;;;;;;;7.30;2.13;;;12.70;99.90;;;;;;4986329;28;20265;-84
2022/05/08 10:18:29;;;;;;;8.80;1.70;;;12.80;99.90;;;;;;4972663;28;20200;-83
2022/05/08 10:21:13;;;;;;;7.93;2.10;;;12.80;99.90;;;;;;4967351;28;20313;-83
2022/05/08 10:23:58;;;;;;;7.63;1.77;;;12.90;99.90;;;;;;4970623;28;20213;-83
2022/05/08 10:27:14;;;;;;;8.17;1.80;;;12.90;99.90;;;;;;4968723;28;20269;-83
2022/05/08 10:29:58;;;;;;;6.93;2.13;;;12.90;99.90;;;;;;4966824;28;20237;-83
2022/05/08 10:32:45;;;;;;;11.13;2.17;;;13.00;99.90;;;;;;4969900;28;20221;-83
2022/05/08 10:35:31;;;;;;;7.90;1.83;;;13.10;99.90;;;;;;4971031;28;20193;-84
2022/05/08 10:38:19;;;;;;;7.63;1.87;;;13.10;99.90;;;;;;4968074;28;20254;-84
2022/05/08 10:41:04;;;;;;;5.53;2.27;;;13.10;99.90;;;;;;4964928;28;20224;-84
2022/05/08 10:43:49;;;;;;;5.33;1.70;;;13.10;99.90;;;;;;4966548;28;20241;-84
2022/05/08 10:46:35;;;;;;;9.87;2.13;;;13.10;99.90;;;;;;4968044;28;20543;-84
2022/05/08 10:49:19;;;;;;;7.97;1.83;;;13.20;99.90;;;;;;4966310;28;20289;-84
2022/05/08 10:52:07;;;;;;;5.57;1.63;;;13.30;99.90;;;;;;4968565;28;20228;-84
2022/05/08 10:54:57;;;;;;;6.43;1.77;;;13.40;99.90;;;;;;4966475;28;20194;-83
2022/05/08 10:57:43;;;;;;;8.33;1.60;;;13.40;99.90;;;;;;4964815;28;20198;-84
2022/05/08 11:00:30;;;;;;;6.77;2.00;;;13.50;99.90;;;;;;4979282;28;20209;-83
2022/05/08 11:03:22;;;;;;;8.73;1.90;;;13.60;99.90;;;;;;4967545;28;20268;-84
2022/05/08 11:06:07;;;;;;;6.40;1.93;;;13.60;99.90;;;;;;4966346;28;20255;-84
2022/05/08 11:08:59;;;;;;;6.37;1.67;;;13.70;99.90;;;;;;4971977;28;20197;-84
2022/05/08 11:11:44;;;;;;;5.33;1.50;;;13.70;99.90;;;;;;4970444;28;20193;-84
2022/05/08 11:14:28;;;;;;;7.90;1.90;;;13.70;99.90;;;;;;4965599;28;20241;-84
2022/05/08 11:17:15;;;;;;;5.30;1.43;;;13.90;99.90;;;;;;4967807;28;20193;-84
2022/05/08 11:19:59;;;;;;;5.37;1.53;;;14.00;99.90;;;;;;4970484;28;20236;-84
2022/05/08 11:22:56;;;;;;;6.93;1.87;;;14.00;99.90;;;;;;4964102;28;20224;-84
2022/05/08 11:25:44;;;;;;;7.70;1.60;;;14.10;99.90;;;;;;4969692;28;20313;-84
2022/05/08 11:28:30;;;;;;;8.87;1.70;;;14.10;99.90;;;;;;4979154;28;20251;-84
2022/05/08 11:31:18;;;;;;;4.73;1.77;;;14.20;99.90;;;;;;4970817;28;20700;-84
2022/05/08 11:37:05;;;;;;;7.23;1.90;;;14.20;99.90;;;;;;4985167;28;20196;-83
2022/05/08 11:39:50;;;;;;;8.97;1.70;;;14.20;99.90;;;;;;4987085;28;20249;-84
2022/05/08 11:42:43;;;;;;;7.63;1.70;;;14.30;99.90;;;;;;4967735;28;20203;-84
2022/05/08 11:45:28;;;;;;;6.90;1.70;;;14.40;99.90;;;;;;4970253;28;20256;-84
2022/05/08 11:48:12;;;;;;;8.07;1.90;;;14.40;99.90;;;;;;4985653;28;20214;-85
2022/05/08 11:50:57;;;;;;;6.90;1.83;;;14.40;99.90;;;;;;4973118;28;20256;-84
2022/05/08 11:53:45;;;;;;;6.73;1.60;;;14.50;99.90;;;;;;4970501;28;20276;-84
2022/05/08 11:56:32;;;;;;;6.03;1.67;;;14.50;99.90;;;;;;4970129;28;20256;-83
2022/05/08 11:59:22;;;;;;;5.37;1.30;;;14.60;99.90;;;;;;4968533;28;20220;-84
2022/05/08 12:02:07;;;;;;;8.13;1.67;;;14.60;99.90;;;;;;4969376;28;20169;-84
2022/05/08 12:04:57;;;;;;;6.23;1.47;;;14.70;99.90;;;;;;4969890;28;20181;-83
2022/05/08 12:07:42;;;;;;;4.50;1.57;;;14.60;99.90;;;;;;4968432;28;20241;-84
2022/05/08 12:10:37;;;;;;;6.53;1.57;;;14.60;99.90;;;;;;4968792;28;20277;-83
2022/05/08 12:13:22;;;;;;;7.63;1.47;;;14.70;99.90;;;;;;4969658;28;20621;-83
2022/05/08 12:16:11;;;;;;;3.07;1.53;;;14.70;99.90;;;;;;4965366;28;20680;-83
2022/05/08 12:19:16;;;;;;;5.43;1.50;;;14.80;99.90;;;;;;4965783;28;20310;-82
2022/05/08 12:22:17;;;;;;;11.00;1.90;;;14.90;99.90;;;;;;4969468;28;20701;-82
2022/05/08 12:25:03;;;;;;;6.43;1.80;;;15.00;99.90;;;;;;4967835;28;20232;-83
2022/05/08 12:27:47;;;;;;;5.07;1.70;;;15.00;99.90;;;;;;4967993;28;20205;-83
2022/05/08 12:30:32;;;;;;;7.57;1.77;;;15.10;99.90;;;;;;4966166;28;20223;-80
2022/05/08 12:33:16;;;;;;;5.80;1.60;;;15.20;99.90;;;;;;4964688;28;20268;-82
2022/05/08 12:36:01;;;;;;;8.77;1.57;;;15.20;99.90;;;;;;4966270;28;20298;-83
2022/05/08 12:38:46;;;;;;;8.47;1.70;;;15.40;99.90;;;;;;4964561;28;20258;-83
2022/05/08 12:41:33;;;;;;;8.50;1.90;;;15.50;99.90;;;;;;4968502;28;20542;-83
2022/05/08 12:44:17;;;;;;;6.50;1.63;;;15.50;99.90;;;;;;4983024;28;20261;-83
2022/05/08 12:47:09;;;;;;;5.80;1.87;;;15.50;99.90;;;;;;4966981;28;20193;-83
2022/05/08 12:49:54;;;;;;;4.93;1.60;;;15.50;99.90;;;;;;4967279;28;20205;-83
2022/05/08 12:52:41;;;;;;;12.40;1.70;;;15.60;99.90;;;;;;4967283;28;20208;-82
2022/05/08 12:55:25;;;;;;;5.57;1.40;;;15.60;99.90;;;;;;4966985;28;20233;-82
2022/05/08 13:01:12;;;;;;;7.60;2.00;;;15.70;99.90;;;;;;4975741;28;20205;-83
2022/05/08 13:03:56;;;;;;;7.73;1.90;;;15.80;99.90;;;;;;4970187;28;20209;-83
2022/05/08 13:06:42;;;;;;;5.03;1.50;;;15.80;99.90;;;;;;4966962;28;20206;-83
2022/05/08 13:09:26;;;;;;;8.70;1.83;;;15.90;99.90;;;;;;4976768;28;20205;-82
2022/05/08 13:12:10;;;;;;;5.83;1.77;;;16.00;99.90;;;;;;4986610;28;20318;-82
2022/05/08 13:14:55;;;;;;;5.67;1.63;;;16.10;99.90;;;;;;4967748;28;20633;-83
2022/05/08 13:17:39;;;;;;;7.27;2.37;;;16.10;99.90;;;;;;4967181;28;20227;-82
2022/05/08 13:20:24;;;;;;;7.07;1.97;;;16.10;99.90;;;;;;4967978;28;20209;-83
2022/05/08 13:23:08;;;;;;;6.60;2.10;;;16.20;99.90;;;;;;4971425;28;20252;-83
2022/05/08 13:25:53;;;;;;;7.23;1.70;;;16.20;99.90;;;;;;4966027;28;20192;-82
2022/05/08 13:28:37;;;;;;;5.83;1.87;;;16.20;99.90;;;;;;4966130;28;20305;-83
2022/05/08 13:31:21;;;;;;;6.90;1.73;;;16.20;99.90;;;;;;4962070;28;20301;-82
2022/05/08 13:34:07;;;;;;;8.03;1.97;;;16.20;99.90;;;;;;4965570;28;20212;-82
2022/05/08 13:36:56;;;;;;;6.70;1.97;;;16.30;99.90;;;;;;4964864;28;20201;-82
2022/05/08 13:39:40;;;;;;;7.03;1.73;;;16.30;99.90;;;;;;4981528;28;20209;-83
2022/05/08 13:42:25;;;;;;;4.93;1.33;;;16.40;99.90;;;;;;4964073;28;20252;-83
2022/05/08 13:45:10;;;;;;;6.10;1.87;;;16.40;99.90;;;;;;4965100;28;20209;-83
2022/05/08 13:47:55;;;;;;;6.60;2.13;;;16.50;99.90;;;;;;4970290;28;20660;-82
2022/05/08 13:50:40;;;;;;;7.87;1.93;;;16.50;99.90;;;;;;4966450;28;20279;-82
2022/05/08 13:53:24;;;;;;;5.93;1.50;;;16.60;99.90;;;;;;4963410;28;20248;-82
2022/05/08 13:56:09;;;;;;;7.90;2.20;;;16.70;99.90;;;;;;4970926;28;20192;-82
2022/05/08 13:58:56;;;;;;;8.37;2.10;;;16.70;99.90;;;;;;4966331;28;20221;-82
2022/05/08 14:01:43;;;;;;;6.90;1.73;;;16.70;99.90;;;;;;4961810;28;20188;-82
2022/05/08 14:04:28;;;;;;;5.03;1.97;;;16.70;99.90;;;;;;4968273;28;20231;-82
2022/05/08 14:07:12;;;;;;;6.40;1.93;;;16.80;99.90;;;;;;4961498;28;20241;-82
2022/05/08 14:09:56;;;;;;;6.67;1.93;;;16.90;99.90;;;;;;4981109;28;20197;-83
2022/05/08 14:12:41;;;;;;;9.63;2.00;;;16.80;99.90;;;;;;4965110;28;20690;-82
2022/05/08 14:15:25;;;;;;;5.97;2.07;;;16.80;99.90;;;;;;4963853;28;20230;-82
2022/05/08 14:18:09;;;;;;;7.30;1.93;;;16.80;99.90;;;;;;4985138;28;20197;-82
2022/05/08 14:20:54;;;;;;;11.67;2.47;;;16.80;99.90;;;;;;4965990;28;20256;-82
2022/05/08 14:23:39;;;;;;;6.20;2.33;;;16.90;99.90;;;;;;4977057;28;20249;-82
2022/05/08 14:26:23;;;;;;;7.47;2.10;;;16.90;99.90;;;;;;4964336;28;20189;-83
2022/05/08 14:29:07;;;;;;;10.00;2.60;;;16.90;99.90;;;;;;4965578;28;20193;-83
2022/05/08 14:37:59;;;;;;;9.03;1.90;;;17.00;99.90;;;;;;4980331;28;20189;-82
2022/05/08 14:40:43;;;;;;;8.83;2.37;;;16.90;99.90;;;;;;4963830;28;20213;-82
2022/05/08 14:43:27;;;;;;;13.37;2.60;;;16.90;99.90;;;;;;4964463;28;20241;-82
2022/05/08 14:46:12;;;;;;;13.03;2.20;;;16.90;99.90;;;;;;4965915;28;20348;-82
2022/05/08 14:48:56;;;;;;;9.23;2.10;;;16.90;99.90;;;;;;4966428;28;20204;-83
2022/05/08 14:51:41;;;;;;;9.77;2.30;;;16.90;99.90;;;;;;4967350;28;20222;-82
2022/05/08 14:54:25;;;;;;;13.70;2.30;;;17.00;99.90;;;;;;4965975;28;20241;-82
2022/05/08 14:57:09;;;;;;;8.73;2.10;;;17.10;99.90;;;;;;4964486;28;20213;-82
2022/05/08 14:59:53;;;;;;;9.37;2.43;;;17.20;99.90;;;;;;4967286;28;20221;-83
2022/05/08 15:02:38;;;;;;;8.53;2.40;;;17.20;99.90;;;;;;4964805;28;20221;-82
2022/05/08 15:05:24;;;;;;;8.87;1.70;;;17.20;99.90;;;;;;4961154;28;20204;-82
2022/05/08 15:08:08;;;;;;;8.70;2.67;;;17.20;99.90;;;;;;4963685;28;20198;-82
2022/05/08 15:10:52;;;;;;;5.83;1.90;;;17.20;99.90;;;;;;4964929;28;20193;-82